createdAt,value
2022-12-20T00:02:47.387Z,7.35
2022-12-20T00:05:49.786Z,6.40
2022-12-20T00:08:57.926Z,6.87
2022-12-20T00:12:00.380Z,6.47
2022-12-20T00:15:03.026Z,7.47
2022-12-20T00:18:05.668Z,7.50
2022-12-20T00:21:09.976Z,8.07
2022-12-20T00:24:13.333Z,7.90
2022-12-20T00:27:15.682Z,8.43
2022-12-20T00:30:18.127Z,8.90
2022-12-20T00:33:20.317Z,7.90
2022-12-20T00:36:24.824Z,8.23
2022-12-20T00:42:29.762Z,8.57
2022-12-20T00:45:32.085Z,8.35
2022-12-20T00:48:34.813Z,9.63
2022-12-20T00:51:37.017Z,9.85
2022-12-20T00:54:41.803Z,10.00
2022-12-20T00:57:44.184Z,10.27
2022-12-20T01:00:54.039Z,9.03
2022-12-20T01:03:58.723Z,9.18
2022-12-20T01:07:02.693Z,7.63
2022-12-20T01:10:05.437Z,7.88
2022-12-20T01:13:07.469Z,7.70
2022-12-20T01:16:22.180Z,5.60
2022-12-20T01:19:24.885Z,6.93
2022-12-20T01:22:27.426Z,4.82
2022-12-20T01:25:29.450Z,5.20
2022-12-20T01:28:32.807Z,5.43
2022-12-20T01:31:36.043Z,5.35
2022-12-20T01:34:38.826Z,5.78
2022-12-20T01:37:40.878Z,7.30
2022-12-20T01:40:42.900Z,6.00
2022-12-20T01:43:57.212Z,7.65
2022-12-20T01:47:00.529Z,6.13
2022-12-20T01:50:04.477Z,4.75
2022-12-20T01:53:06.863Z,2.63
2022-12-20T01:56:10.779Z,1.60
2022-12-20T01:59:14.174Z,1.65
2022-12-20T02:02:17.124Z,2.25
2022-12-20T02:05:21.472Z,1.42
2022-12-20T02:08:24.868Z,1.27
2022-12-20T02:12:05.128Z,1.55
2022-12-20T02:16:10.010Z,1.00
2022-12-20T02:19:33.107Z,1.15
2022-12-20T02:23:31.784Z,1.60
2022-12-20T02:27:11.096Z,2.17
2022-12-20T02:30:24.321Z,1.37
2022-12-20T02:33:28.708Z,1.08
2022-12-20T02:39:36.109Z,1.43
2022-12-20T02:42:38.342Z,2.65
2022-12-20T02:45:40.831Z,3.37
2022-12-20T02:48:43.188Z,5.78
2022-12-20T02:51:49.536Z,5.20
2022-12-20T02:54:51.740Z,7.30
2022-12-20T02:58:03.016Z,10.05
2022-12-20T03:01:14.532Z,7.03
2022-12-20T03:04:19.112Z,8.10
2022-12-20T03:07:21.701Z,8.00
2022-12-20T03:10:23.901Z,6.43
2022-12-20T03:13:26.663Z,8.65
2022-12-20T03:16:28.853Z,6.57
2022-12-20T03:19:32.460Z,9.30
2022-12-20T03:22:35.236Z,8.00
2022-12-20T03:25:38.389Z,7.15
2022-12-20T03:28:40.542Z,6.38
2022-12-20T03:31:42.702Z,7.72
2022-12-20T03:34:44.896Z,5.47
2022-12-20T03:37:47.125Z,5.47
2022-12-20T03:40:49.563Z,6.97
2022-12-20T03:43:53.028Z,5.93
2022-12-20T03:46:55.093Z,6.10
2022-12-20T03:49:57.540Z,6.28
2022-12-20T03:52:59.783Z,8.27
2022-12-20T03:56:01.975Z,8.38
2022-12-20T03:59:04.566Z,8.57
2022-12-20T04:02:06.715Z,8.90
2022-12-20T04:05:11.375Z,11.25
2022-12-20T04:11:18.578Z,8.95
2022-12-20T04:14:20.780Z,7.25
2022-12-20T04:17:22.885Z,9.82
2022-12-20T04:20:25.161Z,11.30
2022-12-20T04:23:27.450Z,8.57
2022-12-20T04:26:29.902Z,9.30
2022-12-20T04:29:32.638Z,8.75
2022-12-20T04:32:34.717Z,7.97
2022-12-20T04:35:37.988Z,8.60
2022-12-20T04:38:40.377Z,8.30
2022-12-20T04:41:43.215Z,8.75
2022-12-20T04:44:45.338Z,9.77
2022-12-20T04:47:47.590Z,6.95
2022-12-20T04:50:51.172Z,6.60
2022-12-20T04:53:54.087Z,8.30
2022-12-20T04:56:57.282Z,7.07
2022-12-20T04:59:59.465Z,10.68
2022-12-20T05:03:01.960Z,9.15
2022-12-20T05:06:04.792Z,8.55
2022-12-20T05:09:07.003Z,7.82
2022-12-20T05:12:09.201Z,7.90
2022-12-20T05:15:20.359Z,8.52
2022-12-20T05:18:27.243Z,8.60
2022-12-20T05:21:47.827Z,8.80
2022-12-20T05:25:08.519Z,6.60
2022-12-20T05:28:10.927Z,7.25
2022-12-20T05:31:15.596Z,8.82
2022-12-20T05:34:18.069Z,7.93
2022-12-20T05:37:21.950Z,9.10
2022-12-20T05:40:24.422Z,12.20
2022-12-20T05:43:26.844Z,9.57
2022-12-20T05:46:30.481Z,8.82
2022-12-20T05:49:32.767Z,9.20
2022-12-20T05:52:34.787Z,8.52
2022-12-20T05:55:37.136Z,10.88
2022-12-20T05:58:40.885Z,8.38
2022-12-20T06:01:43.044Z,11.15
2022-12-20T06:04:45.348Z,12.10
2022-12-20T06:07:50.702Z,10.52
2022-12-20T06:10:53.566Z,10.38
2022-12-20T06:13:56.690Z,9.95
2022-12-20T06:16:58.963Z,9.10
2022-12-20T06:20:01.098Z,9.63
2022-12-20T06:23:04.363Z,7.45
2022-12-20T06:26:09.340Z,8.13
2022-12-20T06:29:14.310Z,9.45
2022-12-20T06:32:16.646Z,9.52
2022-12-20T06:35:18.755Z,10.57
2022-12-20T06:38:20.869Z,8.38
2022-12-20T06:41:23.074Z,8.40
2022-12-20T06:44:25.218Z,10.18
2022-12-20T06:47:27.497Z,9.13
2022-12-20T06:50:29.700Z,7.93
2022-12-20T06:53:31.767Z,8.63
2022-12-20T06:56:40.876Z,6.85
2022-12-20T06:59:43.774Z,8.55
2022-12-20T07:02:46.119Z,9.98
2022-12-20T07:05:53.503Z,8.13
2022-12-20T07:08:56.373Z,8.55
2022-12-20T07:11:58.835Z,10.07
2022-12-20T07:15:01.154Z,9.70
2022-12-20T07:18:04.105Z,10.85
2022-12-20T07:21:06.942Z,9.98
2022-12-20T07:24:09.693Z,9.45
2022-12-20T07:27:12.039Z,7.18
2022-12-20T07:30:18.456Z,9.65
2022-12-20T07:33:20.598Z,8.00
2022-12-20T07:36:23.084Z,8.00
2022-12-20T07:39:25.902Z,6.93
2022-12-20T07:42:35.827Z,6.13
2022-12-20T07:45:40.543Z,4.38
2022-12-20T07:48:44.752Z,4.13
2022-12-20T07:51:51.571Z,3.15
2022-12-20T07:55:00.770Z,4.38
2022-12-20T07:58:06.951Z,3.78
2022-12-20T08:01:11.288Z,2.85
2022-12-20T08:07:22.934Z,1.52
2022-12-20T08:10:26.334Z,1.67
2022-12-20T08:13:28.570Z,1.05
2022-12-20T08:16:31.327Z,0.90
2022-12-20T08:19:33.724Z,0.80
2022-12-20T08:22:36.138Z,0.88
2022-12-20T08:25:41.798Z,1.27
2022-12-20T08:28:44.968Z,3.42
2022-12-20T08:31:50.337Z,3.85
2022-12-20T08:34:53.751Z,5.82
2022-12-20T08:37:56.979Z,8.45
2022-12-20T08:41:08.389Z,6.63
2022-12-20T08:44:10.955Z,8.55
2022-12-20T08:47:13.326Z,6.80
2022-12-20T08:50:15.569Z,6.70
2022-12-20T08:53:17.898Z,8.32
2022-12-20T08:56:20.306Z,8.13
2022-12-20T08:59:22.607Z,8.60
2022-12-20T09:02:24.876Z,9.85
2022-12-20T09:05:27.469Z,8.82
2022-12-20T09:08:29.750Z,7.15
2022-12-20T09:11:31.883Z,8.68
2022-12-20T09:14:34.104Z,8.02
2022-12-20T09:17:36.136Z,6.97
2022-12-20T09:20:44.509Z,7.75
2022-12-20T09:23:54.620Z,5.20
2022-12-20T09:26:56.671Z,8.20
2022-12-20T09:29:59.056Z,7.03
2022-12-20T09:33:10.551Z,4.97
2022-12-20T09:36:14.966Z,8.45
2022-12-20T09:39:17.213Z,6.65
2022-12-20T09:42:24.656Z,7.10
2022-12-20T09:45:29.807Z,6.18
2022-12-20T09:48:38.788Z,7.38
2022-12-20T09:52:00.415Z,8.65
2022-12-20T09:55:28.131Z,7.57
2022-12-20T09:58:39.324Z,8.48
2022-12-20T10:01:46.268Z,8.68
2022-12-20T10:04:48.813Z,10.20
2022-12-20T10:08:06.101Z,9.02
2022-12-20T10:11:21.362Z,7.15
2022-12-20T10:14:35.591Z,6.93
2022-12-20T10:18:14.226Z,7.93
2022-12-20T10:21:47.622Z,8.00
2022-12-20T10:25:12.837Z,8.02
2022-12-20T10:28:17.125Z,6.97
2022-12-20T10:31:21.988Z,5.88
2022-12-20T10:34:24.108Z,7.15
2022-12-20T10:37:26.437Z,6.68
2022-12-20T10:41:10.113Z,7.03
2022-12-20T10:44:18.387Z,6.55
2022-12-20T10:47:40.713Z,6.72
2022-12-20T10:50:43.063Z,7.53
2022-12-20T10:53:59.057Z,6.53
2022-12-20T10:57:21.296Z,10.52
2022-12-20T11:00:33.724Z,7.20
2022-12-20T11:04:02.658Z,7.28
2022-12-20T11:07:25.957Z,9.13
2022-12-20T11:10:30.093Z,11.18
2022-12-20T11:13:32.208Z,6.68
2022-12-20T11:16:38.181Z,6.32
2022-12-20T11:20:17.966Z,5.82
2022-12-20T11:23:42.000Z,6.75
2022-12-20T11:27:02.309Z,6.93
2022-12-20T11:30:40.611Z,7.03
2022-12-20T11:33:48.728Z,7.47
2022-12-20T11:36:50.680Z,9.27
2022-12-20T11:40:20.111Z,6.97
2022-12-20T11:44:07.989Z,6.78
2022-12-20T11:47:23.740Z,8.93
2022-12-20T11:50:40.261Z,5.93
2022-12-20T11:54:00.549Z,9.48
2022-12-20T11:57:14.377Z,8.65
2022-12-20T12:00:25.474Z,7.30
2022-12-20T12:03:35.681Z,6.80
2022-12-20T12:06:53.631Z,10.07
2022-12-20T12:09:58.694Z,8.70
2022-12-20T12:13:11.333Z,6.60
2022-12-20T12:16:27.950Z,7.13
2022-12-20T12:19:31.372Z,6.05
2022-12-20T12:22:36.082Z,5.90
2022-12-20T12:25:38.179Z,5.63
2022-12-20T12:28:40.551Z,7.70
2022-12-20T12:31:54.389Z,6.28
2022-12-20T12:35:32.057Z,5.82
2022-12-20T12:39:12.122Z,5.88
2022-12-20T12:42:48.009Z,5.40
2022-12-20T12:45:59.748Z,6.68
2022-12-20T12:49:16.448Z,5.68
2022-12-20T12:52:55.534Z,6.75
2022-12-20T12:56:19.420Z,4.10
2022-12-20T12:59:20.261Z,4.70
2022-12-20T13:02:33.359Z,5.75
2022-12-20T13:05:36.302Z,6.32
2022-12-20T13:09:01.247Z,6.22
2022-12-20T13:15:25.276Z,6.20
2022-12-20T13:18:28.164Z,5.85
2022-12-20T13:21:36.860Z,5.72
2022-12-20T13:24:48.787Z,5.47
2022-12-20T13:27:52.667Z,3.20
2022-12-20T13:31:04.782Z,3.65
2022-12-20T13:34:52.724Z,2.90
2022-12-20T13:38:02.375Z,3.85
2022-12-20T13:41:18.175Z,3.63
2022-12-20T13:44:47.630Z,4.95
2022-12-20T13:48:10.802Z,2.45
2022-12-20T13:51:22.352Z,2.57
2022-12-20T13:54:27.293Z,3.42
2022-12-20T13:57:31.447Z,4.35
2022-12-20T14:00:35.712Z,3.17
2022-12-20T14:03:48.130Z,3.40
2022-12-20T14:06:58.295Z,3.55
2022-12-20T14:10:02.147Z,3.10
2022-12-20T14:13:17.995Z,2.70
2022-12-20T14:16:20.959Z,2.65
2022-12-20T14:19:23.124Z,3.30
2022-12-20T14:22:25.391Z,4.65
2022-12-20T14:25:37.253Z,3.35
2022-12-20T14:28:46.714Z,3.00
2022-12-20T14:31:49.206Z,4.45
2022-12-20T14:34:53.389Z,3.28
2022-12-20T14:38:04.981Z,3.85
2022-12-20T14:41:30.305Z,3.40
2022-12-20T14:44:33.001Z,2.40
2022-12-20T14:47:36.606Z,2.55
2022-12-20T14:50:43.054Z,3.30
2022-12-20T14:53:47.644Z,3.22
2022-12-20T14:56:52.047Z,4.05
2022-12-20T15:03:19.982Z,3.08
2022-12-20T15:06:49.511Z,2.97
2022-12-20T15:09:51.594Z,2.50
2022-12-20T15:12:53.798Z,3.15
2022-12-20T15:15:56.083Z,3.33
2022-12-20T15:19:01.825Z,2.45
2022-12-20T15:22:04.132Z,2.75
2022-12-20T15:25:16.550Z,2.35
2022-12-20T15:28:22.349Z,4.25
2022-12-20T15:31:32.944Z,2.63
2022-12-20T15:34:37.990Z,3.13
2022-12-20T15:37:41.914Z,3.28
2022-12-20T15:40:46.167Z,2.60
2022-12-20T15:43:50.420Z,3.20
2022-12-20T15:46:55.072Z,4.20
2022-12-20T15:49:57.380Z,3.85
2022-12-20T15:52:59.587Z,4.60
2022-12-20T15:56:01.758Z,3.78
2022-12-20T15:59:24.363Z,3.88
2022-12-20T16:02:29.033Z,4.43
2022-12-20T16:05:31.475Z,5.50
2022-12-20T16:08:34.957Z,4.50
2022-12-20T16:11:37.239Z,4.25
2022-12-20T16:14:39.590Z,2.95
2022-12-20T16:17:42.559Z,3.85
2022-12-20T16:20:45.038Z,3.17
2022-12-20T16:23:47.509Z,9.23
2022-12-20T16:26:49.907Z,3.60
2022-12-20T16:29:52.051Z,3.60
2022-12-20T16:32:54.797Z,4.05
2022-12-20T16:35:57.025Z,4.38
2022-12-20T16:39:00.281Z,3.42
2022-12-20T16:42:02.423Z,5.15
2022-12-20T16:45:04.698Z,4.35
2022-12-20T16:48:06.990Z,3.45
2022-12-20T16:51:29.520Z,3.30
2022-12-20T16:54:32.254Z,4.80
2022-12-20T16:57:34.420Z,5.63
2022-12-20T17:00:37.500Z,5.15
2022-12-20T17:03:39.891Z,3.60
2022-12-20T17:06:43.114Z,3.55
2022-12-20T17:09:46.390Z,3.33
2022-12-20T17:12:49.076Z,3.53
2022-12-20T17:15:51.505Z,5.43
2022-12-20T17:18:55.804Z,4.80
2022-12-20T17:25:19.834Z,4.10
2022-12-20T17:28:22.182Z,6.95
2022-12-20T17:31:28.480Z,5.90
2022-12-20T17:34:31.629Z,8.85
2022-12-20T17:37:33.931Z,5.70
2022-12-20T17:40:36.459Z,6.13
2022-12-20T17:43:39.426Z,9.30
2022-12-20T17:46:42.436Z,7.15
2022-12-20T17:49:44.959Z,5.47
2022-12-20T17:52:47.680Z,5.35
2022-12-20T17:55:51.340Z,4.15
2022-12-20T17:58:54.711Z,5.77
2022-12-20T18:01:57.502Z,7.13
2022-12-20T18:04:59.844Z,5.50
2022-12-20T18:08:02.140Z,6.43
2022-12-20T18:11:04.250Z,6.85
2022-12-20T18:14:06.379Z,5.40
2022-12-20T18:17:08.585Z,5.18
2022-12-20T18:20:11.716Z,7.40
2022-12-20T18:23:14.107Z,5.50
2022-12-20T18:26:23.754Z,8.77
2022-12-20T18:29:26.167Z,7.28
2022-12-20T18:32:31.343Z,8.20
2022-12-20T18:35:33.799Z,9.00
2022-12-20T18:38:39.162Z,7.85
2022-12-20T18:41:43.114Z,7.65
2022-12-20T18:44:45.612Z,7.28
2022-12-20T18:47:47.811Z,6.80
2022-12-20T18:50:49.828Z,7.00
2022-12-20T18:53:55.341Z,7.43
2022-12-20T18:57:00.286Z,29.35
2022-12-20T19:00:05.767Z,10.95
2022-12-20T19:03:08.759Z,6.53
2022-12-20T19:06:11.637Z,6.78
2022-12-20T19:09:14.346Z,7.53
2022-12-20T19:12:16.502Z,5.72
2022-12-20T19:15:18.959Z,6.07
2022-12-20T19:18:21.153Z,6.22
2022-12-20T19:21:27.953Z,5.43
2022-12-20T19:24:30.138Z,7.10
2022-12-20T19:27:32.253Z,6.05
2022-12-20T19:30:35.975Z,5.90
2022-12-20T19:33:39.762Z,6.80
2022-12-20T19:36:46.510Z,5.90
2022-12-20T19:39:48.658Z,6.57
2022-12-20T19:42:51.616Z,8.30
2022-12-20T19:45:53.927Z,8.90
2022-12-20T19:48:57.601Z,6.78
2022-12-20T19:51:59.779Z,7.20
2022-12-20T19:55:02.027Z,5.97
2022-12-20T19:58:05.047Z,6.28
2022-12-20T20:01:08.951Z,6.40
2022-12-20T20:04:11.413Z,7.07
2022-12-20T20:07:13.797Z,6.00
2022-12-20T20:10:15.948Z,6.70
2022-12-20T20:13:18.090Z,6.82
2022-12-20T20:16:22.800Z,6.80
2022-12-20T20:19:25.179Z,6.88
2022-12-20T20:22:27.330Z,7.03
2022-12-20T20:25:29.423Z,5.07
2022-12-20T20:28:33.264Z,7.90
2022-12-20T20:31:38.610Z,5.88
2022-12-20T20:34:40.761Z,9.18
2022-12-20T20:37:42.928Z,9.43
2022-12-20T20:40:46.368Z,9.82
2022-12-20T20:43:49.350Z,9.18
2022-12-20T20:46:51.458Z,8.63
2022-12-20T20:49:53.757Z,8.07
2022-12-20T20:52:55.821Z,9.20
2022-12-20T20:55:58.019Z,6.63
2022-12-20T20:59:05.968Z,8.67
2022-12-20T21:02:14.418Z,7.27
2022-12-20T21:06:06.275Z,9.93
2022-12-20T21:08:40.082Z,9.68
2022-12-20T21:11:42.550Z,10.93
2022-12-20T21:15:20.869Z,11.18
2022-12-20T21:18:07.035Z,11.23
2022-12-20T21:21:11.232Z,11.48
2022-12-20T21:24:14.268Z,11.48
2022-12-20T21:27:16.794Z,14.40
2022-12-20T21:30:19.364Z,13.03
2022-12-20T21:33:22.479Z,13.68
2022-12-20T21:36:26.242Z,13.98
2022-12-20T21:39:28.366Z,14.10
2022-12-20T21:42:31.929Z,15.38
2022-12-20T21:45:34.483Z,11.70
2022-12-20T21:48:36.844Z,10.70
2022-12-20T21:51:38.888Z,9.55
2022-12-20T21:54:41.207Z,10.23
2022-12-20T21:57:44.223Z,7.57
2022-12-20T22:00:52.491Z,6.82
2022-12-20T22:04:02.947Z,9.35
2022-12-20T22:07:05.187Z,8.20
2022-12-20T22:10:08.219Z,6.25
2022-12-20T22:13:11.529Z,7.40
2022-12-20T22:16:21.195Z,7.32
2022-12-20T22:19:24.623Z,6.78
2022-12-20T22:22:27.015Z,7.15
2022-12-20T22:25:29.238Z,8.85
2022-12-20T22:28:31.586Z,7.28
2022-12-20T22:32:03.079Z,8.80
2022-12-20T22:35:05.913Z,8.73
2022-12-20T22:38:08.479Z,9.38
2022-12-20T22:41:14.705Z,10.70
2022-12-20T22:44:20.003Z,13.80
2022-12-20T22:47:22.057Z,9.05
2022-12-20T22:50:24.320Z,8.70
2022-12-20T22:53:26.804Z,9.18
2022-12-20T22:56:28.967Z,8.38
2022-12-20T22:59:33.684Z,6.38
2022-12-20T23:05:53.248Z,7.10
2022-12-20T23:08:56.779Z,7.32
2022-12-20T23:12:17.574Z,7.85
2022-12-20T23:15:38.203Z,5.50
2022-12-20T23:18:40.461Z,5.63
2022-12-20T23:22:01.047Z,5.05
2022-12-20T23:25:04.563Z,6.95
2022-12-20T23:28:06.602Z,7.32
2022-12-20T23:31:09.974Z,6.22
2022-12-20T23:34:12.185Z,13.07
2022-12-20T23:37:14.679Z,5.75
2022-12-20T23:40:17.589Z,5.43
2022-12-20T23:43:19.921Z,8.07
2022-12-20T23:46:22.620Z,6.13
2022-12-20T23:49:24.903Z,5.28
2022-12-20T23:52:27.056Z,5.72
2022-12-20T23:55:29.387Z,6.40
2022-12-20T23:58:32.291Z,5.85
